Terminal Aerodrome Forecast
Issued by NWS Hastings, NE

Home | Current Version | Previous Version | Text Only | Print | Product List | Glossary On
Versions: 1 2 3 4 5 6 7 8 9 10 11 12 13 14 15 16
000
FTUS45 KGID 062338
TAFEAR
TAF
KEAR 062338Z 0700/0724 01018G25KT 4SM FU BKN035 BKN300
     FM070100 01015KT 4SM FU BKN035 BKN300
     FM070900 03008KT 4SM FU BKN250
     FM071800 03006KT P6SM FEW250
      AMD LTD TO CLD VIS AND WIND=

USA.gov is the U.S. government's official web portal to all federal, state and local government web resources and services.